Flag for Poland

Past Weather in Chorzów, Poland — Yesterday and Last 2 Weeks

Currently: 34 °F. Clear. (Weather station: Katowice Airport, Poland). See more current weather

Past Weather in Chorzów — Graph

°F

Chorzów Temperature Yesterday

Maximum temperature yesterday: 43 °F (at 2:00 pm)
Minimum temperature yesterday: 32 °F (at 1:00 am)
Average temperature yesterday: 37 °F

High & Low Weather Summary for the Past Weeks

 TemperatureHumidityPressure
High43 °F (Jan 20, 2:00 pm)100% (Jan 6, 7:30 am)30.21 "Hg (Jan 6, 7:30 am)
Low1 °F (Jan 18, 7:00 am)60% (Jan 12, 1:30 pm)29.56 "Hg (Jan 14, 2:30 am)
Average27 °F88%29.93 "Hg
* Reported Jan 6 5:00 am — Jan 21 5:00 am, Chorzów. Weather by CustomWeather, © 2021

Note: Actual official high and low records may vary slightly from our data, if they occured in-between our weather recording intervals... More about our weather records

Chorzów Weather History for the Previous 24 Hours

Scroll right to see more
 ConditionsComfort  
Time TempWeatherWind HumidityBarometerVisibility
5:00 am
Thu, Jan 21
34 °FClear.5 mph87%29.74 "Hg10 mi
4:30 am34 °FPassing clouds.5 mph87%29.74 "HgN/A
4:00 am36 °FClear.6 mph81%29.74 "Hg10 mi
3:30 am36 °FClear.5 mph81%29.74 "Hg10 mi
3:00 am34 °FClear.5 mph81%29.74 "Hg10 mi
2:30 am34 °FClear.8 mph87%29.74 "Hg10 mi
2:00 am36 °FClear.7 mph81%29.74 "Hg6 mi
1:30 am36 °FClear.7 mph81%29.74 "Hg5 mi
1:00 am37 °FClear.5 mph75%29.74 "Hg5 mi
12:30 am34 °FClear.7 mph87%29.77 "Hg4 mi
12:00 am34 °FClear.3 mph81%29.77 "Hg4 mi
11:30 pm
Wed, Jan 20
36 °FClear.6 mph81%29.77 "Hg4 mi
11:00 pm37 °FClear.7 mph75%29.77 "Hg4 mi
10:30 pm37 °FClear.8 mph75%29.77 "Hg5 mi
10:00 pm37 °FClear.7 mph75%29.77 "Hg4 mi
9:30 pm36 °FClear.6 mph81%29.80 "Hg4 mi
9:00 pm36 °FClear.7 mph81%29.80 "Hg4 mi
8:30 pm37 °FClear.5 mph75%29.80 "Hg4 mi
8:00 pm37 °FClear.7 mph75%29.80 "Hg10 mi
7:30 pm39 °FClear.8 mph75%29.80 "Hg10 mi
7:00 pm36 °FClear.7 mph87%29.80 "Hg10 mi
6:30 pm34 °FClear.6 mph81%29.80 "Hg10 mi
6:00 pm37 °FClear.3 mph81%29.80 "Hg6 mi
5:30 pm37 °FClear.8 mph81%29.80 "Hg10 mi
5:00 pm39 °FClear.9 mph75%29.80 "Hg10 mi
4:30 pm41 °FClear.10 mph70%29.80 "Hg10 mi
4:00 pm41 °FSunny.12 mph70%29.80 "Hg10 mi
3:30 pm41 °FSunny.15 mph70%29.80 "Hg10 mi
3:00 pm43 °FSunny.16 mph66%29.80 "Hg10 mi
2:30 pm41 °FSunny.15 mph70%29.80 "Hg10 mi
2:00 pm43 °FSunny.16 mph66%29.80 "Hg10 mi
1:30 pm41 °FSunny.14 mph76%29.80 "Hg10 mi
1:00 pm41 °FSunny.13 mph76%29.80 "Hg10 mi
12:30 pm41 °FSunny.15 mph76%29.80 "Hg10 mi
12:00 pm39 °FSunny.17 mph81%29.80 "Hg10 mi
11:30 am39 °FSunny.16 mph81%29.80 "Hg10 mi
11:00 am37 °FSunny.16 mph87%29.83 "Hg10 mi
10:30 am37 °FSunny.16 mph87%29.83 "Hg10 mi
10:00 am37 °FPartly sunny.16 mph87%29.83 "HgN/A
9:30 am36 °FPartly sunny.13 mph93%29.83 "HgN/A
9:00 am36 °FLow clouds.14 mph93%29.83 "HgN/A
8:30 am36 °FMore clouds than sun.16 mph93%29.80 "HgN/A
8:00 am36 °FMostly cloudy.13 mph93%29.80 "HgN/A
7:30 am36 °FLow clouds.12 mph93%29.80 "HgN/A
7:00 am36 °FMostly cloudy.10 mph93%29.80 "HgN/A
6:30 am34 °FLight rain. Passing clouds.12 mph100%29.80 "Hg4 mi
6:00 am34 °FLight rain. Passing clouds.12 mph100%29.80 "Hg5 mi
Weather by CustomWeather, © 2021

See weather overview